Erin, Canada
Current Conditions -  °F | °C
As of 4:00 AM on Thursday 27 Nov 2014 (Local Time) from CYYZ Reporting Station
Overcast Overcast  
Wind Chill: 30°   Ceiling: 5700
Heat Index: 30°   Visibility: 12mi
Dew Point: 19°   Wind: 3mph
Humidity: 64%   Direction: 10°N
Pressure: 30.05"   Gusts: NA
Location:  43.77°N, 80.07°W
Report Text: CYYZ 270900Z 01003KT 12SM OVC057 M01/M07 A3005 RMK SC8 SLP182
Loading
Personal Weather Stations






























Interactive Weather Map New forecast layout! Learn more

10-Day Weather Forecast

Advertisements
Track Severe Weather on mobile